sensor_id;sensor_type;location;lat;lon;timestamp;pressure;altitude;pressure_sealevel;temperature;humidity
39793;BME280;26080;42.264;24.536;2022-12-29T00:02:05;100514.56;;;4.87;100.00
39793;BME280;26080;42.264;24.536;2022-12-29T00:04:30;100512.88;;;4.77;100.00
39793;BME280;26080;42.264;24.536;2022-12-29T00:06:56;100521.53;;;4.73;100.00
39793;BME280;26080;42.264;24.536;2022-12-29T00:09:21;100517.22;;;4.72;100.00
39793;BME280;26080;42.264;24.536;2022-12-29T00:11:47;100518.97;;;4.62;100.00
39793;BME280;26080;42.264;24.536;2022-12-29T00:14:12;100522.44;;;4.63;100.00
39793;BME280;26080;42.264;24.536;2022-12-29T00:16:56;100494.00;;;4.41;100.00
39793;BME280;26080;42.264;24.536;2022-12-29T00:19:22;100519.03;;;4.55;100.00
39793;BME280;26080;42.264;24.536;2022-12-29T00:22:09;100525.09;;;4.54;100.00
39793;BME280;26080;42.264;24.536;2022-12-29T00:24:53;100523.34;;;4.59;100.00
39793;BME280;26080;42.264;24.536;2022-12-29T00:27:34;100543.97;;;4.86;100.00
39793;BME280;26080;42.264;24.536;2022-12-29T00:30:21;100539.66;;;4.87;100.00
39793;BME280;26080;42.264;24.536;2022-12-29T00:33:14;100525.84;;;4.83;100.00
39793;BME280;26080;42.264;24.536;2022-12-29T00:36:02;100544.81;;;4.97;100.00
39793;BME280;26080;42.264;24.536;2022-12-29T00:38:31;100544.00;;;4.85;100.00
39793;BME280;26080;42.264;24.536;2022-12-29T00:41:16;100548.31;;;4.84;100.00
39793;BME280;26080;42.264;24.536;2022-12-29T00:44:01;100522.38;;;4.83;100.00
39793;BME280;26080;42.264;24.536;2022-12-29T00:46:37;100549.06;;;5.12;100.00
39793;BME280;26080;42.264;24.536;2022-12-29T00:49:04;100549.03;;;5.14;100.00
39793;BME280;26080;42.264;24.536;2022-12-29T00:51:50;100544.69;;;5.19;100.00
39793;BME280;26080;42.264;24.536;2022-12-29T00:54:16;100541.22;;;5.21;100.00
39793;BME280;26080;42.264;24.536;2022-12-29T00:56:41;100519.59;;;5.15;100.00
39793;BME280;26080;42.264;24.536;2022-12-29T00:59:09;100542.00;;;5.35;100.00
39793;BME280;26080;42.264;24.536;2022-12-29T01:01:36;100548.03;;;5.41;100.00
39793;BME280;26080;42.264;24.536;2022-12-29T01:04:02;100544.59;;;5.34;100.00
39793;BME280;26080;42.264;24.536;2022-12-29T01:06:28;100542.88;;;5.34;100.00
39793;BME280;26080;42.264;24.536;2022-12-29T01:08:53;100540.25;;;5.36;100.00
39793;BME280;26080;42.264;24.536;2022-12-29T01:11:38;100534.19;;;5.34;100.00
39793;BME280;26080;42.264;24.536;2022-12-29T01:14:04;100511.84;;;5.12;100.00
39793;BME280;26080;42.264;24.536;2022-12-29T01:16:30;100540.38;;;5.16;100.00
39793;BME280;26080;42.264;24.536;2022-12-29T01:18:56;100540.34;;;5.22;100.00
39793;BME280;26080;42.264;24.536;2022-12-29T01:21:21;100506.59;;;5.16;100.00
39793;BME280;26080;42.264;24.536;2022-12-29T01:23:47;100529.91;;;5.27;100.00
39793;BME280;26080;42.264;24.536;2022-12-29T01:26:14;100525.69;;;5.11;100.00
39793;BME280;26080;42.264;24.536;2022-12-29T01:28:41;100523.19;;;4.95;100.00
39793;BME280;26080;42.264;24.536;2022-12-29T01:31:10;100486.09;;;4.69;100.00
39793;BME280;26080;42.264;24.536;2022-12-29T01:33:36;100519.72;;;4.93;100.00
39793;BME280;26080;42.264;24.536;2022-12-29T01:36:07;100502.50;;;4.80;100.00
39793;BME280;26080;42.264;24.536;2022-12-29T01:38:34;100526.75;;;4.73;100.00
39793;BME280;26080;42.264;24.536;2022-12-29T01:41:00;100507.75;;;4.68;100.00
39793;BME280;26080;42.264;24.536;2022-12-29T01:43:48;100490.50;;;4.49;100.00
39793;BME280;26080;42.264;24.536;2022-12-29T01:49:04;100500.00;;;4.50;100.00
39793;BME280;26080;42.264;24.536;2022-12-29T01:51:32;100490.53;;;4.38;100.00
39793;BME280;26080;42.264;24.536;2022-12-29T01:54:05;100498.34;;;4.24;100.00
39793;BME280;26080;42.264;24.536;2022-12-29T01:56:34;100491.44;;;4.20;100.00
39793;BME280;26080;42.264;24.536;2022-12-29T01:59:04;100488.88;;;4.09;100.00
39793;BME280;26080;42.264;24.536;2022-12-29T02:01:31;100488.06;;;4.00;100.00
39793;BME280;26080;42.264;24.536;2022-12-29T02:03:58;100482.84;;;3.95;100.00
39793;BME280;26080;42.264;24.536;2022-12-29T02:06:49;100453.53;;;3.75;100.00
39793;BME280;26080;42.264;24.536;2022-12-29T02:09:13;100491.50;;;3.97;100.00
39793;BME280;26080;42.264;24.536;2022-12-29T02:11:38;100466.47;;;3.79;100.00
39793;BME280;26080;42.264;24.536;2022-12-29T02:14:11;100492.38;;;3.98;100.00
39793;BME280;26080;42.264;24.536;2022-12-29T02:19:31;100479.44;;;3.66;100.00
39793;BME280;26080;42.264;24.536;2022-12-29T02:35:58;100469.94;;;3.17;100.00
39793;BME280;26080;42.264;24.536;2022-12-29T02:41:06;100467.34;;;3.17;100.00
39793;BME280;26080;42.264;24.536;2022-12-29T02:46:40;100467.31;;;3.10;100.00
39793;BME280;26080;42.264;24.536;2022-12-29T02:49:24;100422.41;;;2.65;100.00
39793;BME280;26080;42.264;24.536;2022-12-29T02:52:14;100435.31;;;2.68;100.00
39793;BME280;26080;42.264;24.536;2022-12-29T02:54:41;100416.31;;;2.60;100.00
39793;BME280;26080;42.264;24.536;2022-12-29T02:59:36;100454.38;;;2.90;100.00
39793;BME280;26080;42.264;24.536;2022-12-29T03:16:31;100443.03;;;2.51;100.00
39793;BME280;26080;42.264;24.536;2022-12-29T03:19:22;100431.78;;;2.43;100.00
39793;BME280;26080;42.264;24.536;2022-12-29T03:21:56;100441.28;;;2.40;100.00
39793;BME280;26080;42.264;24.536;2022-12-29T03:24:55;100442.13;;;2.37;100.00
39793;BME280;26080;42.264;24.536;2022-12-29T03:27:27;100412.72;;;2.17;100.00
39793;BME280;26080;42.264;24.536;2022-12-29T03:30:00;100432.53;;;2.10;100.00
39793;BME280;26080;42.264;24.536;2022-12-29T03:32:56;100437.63;;;2.02;100.00
39793;BME280;26080;42.264;24.536;2022-12-29T03:35:25;100441.84;;;1.85;100.00
39793;BME280;26080;42.264;24.536;2022-12-29T03:37:58;100447.81;;;1.76;100.00
39793;BME280;26080;42.264;24.536;2022-12-29T03:40:26;100446.91;;;1.67;100.00
39793;BME280;26080;42.264;24.536;2022-12-29T03:42:53;100440.03;;;1.69;100.00
39793;BME280;26080;42.264;24.536;2022-12-29T03:45:20;100433.19;;;1.77;100.00
39793;BME280;26080;42.264;24.536;2022-12-29T03:47:46;100445.94;;;1.53;100.00
39793;BME280;26080;42.264;24.536;2022-12-29T03:50:14;100444.06;;;1.35;100.00
39793;BME280;26080;42.264;24.536;2022-12-29T03:52:40;100447.38;;;1.20;100.00
39793;BME280;26080;42.264;24.536;2022-12-29T03:55:06;100450.78;;;1.14;100.00
39793;BME280;26080;42.264;24.536;2022-12-29T03:57:32;100455.88;;;1.07;100.00
39793;BME280;26080;42.264;24.536;2022-12-29T03:59:57;100450.63;;;0.96;100.00
39793;BME280;26080;42.264;24.536;2022-12-29T04:02:22;100444.50;;;0.86;100.00
39793;BME280;26080;42.264;24.536;2022-12-29T04:04:49;100454.69;;;0.74;100.00
39793;BME280;26080;42.264;24.536;2022-12-29T04:07:14;100435.53;;;0.54;100.00
39793;BME280;26080;42.264;24.536;2022-12-29T04:09:40;100452.09;;;0.74;100.00
39793;BME280;26080;42.264;24.536;2022-12-29T04:12:05;100455.72;;;0.90;100.00
39793;BME280;26080;42.264;24.536;2022-12-29T04:14:31;100467.56;;;0.74;100.00
39793;BME280;26080;42.264;24.536;2022-12-29T04:16:56;100462.28;;;0.64;100.00
39793;BME280;26080;42.264;24.536;2022-12-29T04:19:22;100458.81;;;0.60;100.00
39793;BME280;26080;42.264;24.536;2022-12-29T04:21:47;100458.81;;;0.57;100.00
39793;BME280;26080;42.264;24.536;2022-12-29T04:24:13;100460.53;;;0.59;100.00
39793;BME280;26080;42.264;24.536;2022-12-29T04:26:38;100467.41;;;0.59;100.00
39793;BME280;26080;42.264;24.536;2022-12-29T04:29:04;100456.97;;;0.50;100.00
39793;BME280;26080;42.264;24.536;2022-12-29T04:31:30;100417.22;;;0.28;100.00
39793;BME280;26080;42.264;24.536;2022-12-29T04:33:55;100454.44;;;0.53;100.00
39793;BME280;26080;42.264;24.536;2022-12-29T04:36:22;100462.16;;;0.51;100.00
39793;BME280;26080;42.264;24.536;2022-12-29T04:38:48;100466.44;;;0.51;100.00
39793;BME280;26080;42.264;24.536;2022-12-29T04:41:14;100473.31;;;0.52;100.00
39793;BME280;26080;42.264;24.536;2022-12-29T04:43:39;100462.06;;;0.44;100.00
39793;BME280;26080;42.264;24.536;2022-12-29T04:46:05;100469.84;;;0.47;100.00
39793;BME280;26080;42.264;24.536;2022-12-29T04:48:31;100421.38;;;0.17;100.00
39793;BME280;26080;42.264;24.536;2022-12-29T04:50:56;100468.94;;;0.42;100.00
39793;BME280;26080;42.264;24.536;2022-12-29T04:53:21;100426.50;;;0.15;100.00
39793;BME280;26080;42.264;24.536;2022-12-29T04:55:51;100460.16;;;0.27;100.00
39793;BME280;26080;42.264;24.536;2022-12-29T04:58:17;100468.81;;;0.34;100.00
39793;BME280;26080;42.264;24.536;2022-12-29T05:00:43;100475.81;;;0.43;100.00
39793;BME280;26080;42.264;24.536;2022-12-29T05:03:08;100468.16;;;0.52;100.00
39793;BME280;26080;42.264;24.536;2022-12-29T05:05:34;100460.56;;;0.61;100.00
39793;BME280;26080;42.264;24.536;2022-12-29T05:08:00;100475.28;;;0.71;100.00
39793;BME280;26080;42.264;24.536;2022-12-29T05:10:25;100475.34;;;0.77;100.00
39793;BME280;26080;42.264;24.536;2022-12-29T05:12:51;100475.31;;;0.74;100.00
39793;BME280;26080;42.264;24.536;2022-12-29T05:15:16;100472.59;;;0.64;100.00
39793;BME280;26080;42.264;24.536;2022-12-29T05:17:42;100438.94;;;0.50;100.00
39793;BME280;26080;42.264;24.536;2022-12-29T05:20:08;100469.31;;;0.75;100.00
39793;BME280;26080;42.264;24.536;2022-12-29T05:22:34;100461.59;;;0.80;100.00
39793;BME280;26080;42.264;24.536;2022-12-29T05:24:59;100463.41;;;0.85;100.00
39793;BME280;26080;42.264;24.536;2022-12-29T05:27:25;100457.47;;;0.94;100.00
39793;BME280;26080;42.264;24.536;2022-12-29T05:29:51;100456.53;;;0.87;100.00
39793;BME280;26080;42.264;24.536;2022-12-29T05:32:16;100464.13;;;0.74;100.00
39793;BME280;26080;42.264;24.536;2022-12-29T05:34:42;100473.50;;;0.66;100.00
39793;BME280;26080;42.264;24.536;2022-12-29T05:37:07;100471.72;;;0.60;100.00
39793;BME280;26080;42.264;24.536;2022-12-29T05:39:32;100476.75;;;0.51;100.00
39793;BME280;26080;42.264;24.536;2022-12-29T05:41:58;100452.50;;;0.34;100.00
39793;BME280;26080;42.264;24.536;2022-12-29T05:44:23;100473.41;;;0.58;100.00
39793;BME280;26080;42.264;24.536;2022-12-29T05:46:49;100461.31;;;0.54;100.00
39793;BME280;26080;42.264;24.536;2022-12-29T05:49:15;100482.16;;;0.71;100.00
39793;BME280;26080;42.264;24.536;2022-12-29T05:51:40;100479.63;;;0.75;100.00
39793;BME280;26080;42.264;24.536;2022-12-29T05:54:06;100472.63;;;0.65;100.00
39793;BME280;26080;42.264;24.536;2022-12-29T05:56:32;100472.41;;;0.45;100.00
39793;BME280;26080;42.264;24.536;2022-12-29T05:58:57;100474.09;;;0.42;100.00
39793;BME280;26080;42.264;24.536;2022-12-29T06:19:05;100487.94;;;0.53;100.00
39793;BME280;26080;42.264;24.536;2022-12-29T06:21:31;100501.59;;;0.43;100.00
39793;BME280;26080;42.264;24.536;2022-12-29T06:23:56;100488.91;;;0.59;100.00
39793;BME280;26080;42.264;24.536;2022-12-29T06:26:22;100500.97;;;0.65;100.00
39793;BME280;26080;42.264;24.536;2022-12-29T06:28:47;100511.53;;;0.85;100.00
39793;BME280;26080;42.264;24.536;2022-12-29T06:31:13;100513.16;;;0.78;100.00
39793;BME280;26080;42.264;24.536;2022-12-29T06:33:39;100509.59;;;0.67;100.00
39793;BME280;26080;42.264;24.536;2022-12-29T06:36:05;100517.41;;;0.72;100.00
39793;BME280;26080;42.264;24.536;2022-12-29T06:38:30;100516.38;;;0.59;100.00
39793;BME280;26080;42.264;24.536;2022-12-29T06:40:56;100520.75;;;0.65;100.00
39793;BME280;26080;42.264;24.536;2022-12-29T06:43:21;100514.69;;;0.61;100.00
39793;BME280;26080;42.264;24.536;2022-12-29T06:45:47;100505.41;;;0.75;100.00
39793;BME280;26080;42.264;24.536;2022-12-29T06:48:12;100522.00;;;0.99;100.00
39793;BME280;26080;42.264;24.536;2022-12-29T06:50:38;100515.19;;;1.04;100.00
39793;BME280;26080;42.264;24.536;2022-12-29T06:53:03;100502.38;;;1.13;100.00
39793;BME280;26080;42.264;24.536;2022-12-29T06:55:29;100511.03;;;1.18;100.00
39793;BME280;26080;42.264;24.536;2022-12-29T06:57:56;100513.59;;;1.15;100.00
39793;BME280;26080;42.264;24.536;2022-12-29T07:00:22;100512.97;;;1.40;100.00
39793;BME280;26080;42.264;24.536;2022-12-29T07:02:48;100476.59;;;1.14;100.00
39793;BME280;26080;42.264;24.536;2022-12-29T07:05:13;100520.84;;;1.57;100.00
39793;BME280;26080;42.264;24.536;2022-12-29T07:07:39;100515.66;;;1.53;100.00
39793;BME280;26080;42.264;24.536;2022-12-29T07:10:05;100520.84;;;1.57;100.00
39793;BME280;26080;42.264;24.536;2022-12-29T07:12:30;100519.13;;;1.58;100.00
39793;BME280;26080;42.264;24.536;2022-12-29T07:14:56;100482.88;;;1.42;100.00
39793;BME280;26080;42.264;24.536;2022-12-29T07:17:21;100514.94;;;1.73;100.00
39793;BME280;26080;42.264;24.536;2022-12-29T07:19:47;100522.13;;;2.16;100.00
39793;BME280;26080;42.264;24.536;2022-12-29T07:22:12;100523.91;;;2.23;100.00
39793;BME280;26080;42.264;24.536;2022-12-29T07:24:37;100531.63;;;2.17;100.00
39793;BME280;26080;42.264;24.536;2022-12-29T07:27:03;100516.16;;;2.20;100.00
39793;BME280;26080;42.264;24.536;2022-12-29T07:29:29;100512.72;;;2.21;100.00
39793;BME280;26080;42.264;24.536;2022-12-29T07:31:55;100504.16;;;2.34;100.00
39793;BME280;26080;42.264;24.536;2022-12-29T07:34:20;100528.31;;;2.45;100.00
39793;BME280;26080;42.264;24.536;2022-12-29T07:36:46;100526.66;;;2.47;100.00
39793;BME280;26080;42.264;24.536;2022-12-29T07:39:11;100517.19;;;2.58;100.00
39793;BME280;26080;42.264;24.536;2022-12-29T07:41:37;100516.38;;;2.68;100.00
39793;BME280;26080;42.264;24.536;2022-12-29T07:44:03;100513.84;;;2.79;100.00
39793;BME280;26080;42.264;24.536;2022-12-29T07:46:28;100518.16;;;2.85;100.00
39793;BME280;26080;42.264;24.536;2022-12-29T07:48:54;100513.03;;;2.91;100.00
39793;BME280;26080;42.264;24.536;2022-12-29T07:51:19;100521.69;;;3.02;100.00
39793;BME280;26080;42.264;24.536;2022-12-29T07:53:45;100514.78;;;3.06;100.00
39793;BME280;26080;42.264;24.536;2022-12-29T07:56:10;100519.97;;;3.15;100.00
39793;BME280;26080;42.264;24.536;2022-12-29T07:58:36;100504.47;;;3.16;100.00
39793;BME280;26080;42.264;24.536;2022-12-29T08:01:01;100492.38;;;3.18;100.00
39793;BME280;26080;42.264;24.536;2022-12-29T08:03:27;100520.88;;;3.35;100.00
39793;BME280;26080;42.264;24.536;2022-12-29T08:05:52;100512.25;;;3.45;100.00
39793;BME280;26080;42.264;24.536;2022-12-29T08:08:18;100511.41;;;3.57;100.00
39793;BME280;26080;42.264;24.536;2022-12-29T08:10:43;100511.41;;;3.71;100.00
39793;BME280;26080;42.264;24.536;2022-12-29T08:13:09;100476.88;;;3.60;100.00
39793;BME280;26080;42.264;24.536;2022-12-29T08:15:36;100506.22;;;3.84;100.00
39793;BME280;26080;42.264;24.536;2022-12-29T08:18:02;100513.97;;;3.95;100.00
39793;BME280;26080;42.264;24.536;2022-12-29T08:20:28;100513.09;;;4.05;100.00
39793;BME280;26080;42.264;24.536;2022-12-29T08:22:53;100506.16;;;4.18;100.00
39793;BME280;26080;42.264;24.536;2022-12-29T08:25:19;100515.63;;;4.30;100.00
39793;BME280;26080;42.264;24.536;2022-12-29T08:27:44;100502.63;;;4.37;100.00
39793;BME280;26080;42.264;24.536;2022-12-29T08:30:10;100492.25;;;4.46;100.00
39793;BME280;26080;42.264;24.536;2022-12-29T08:32:36;100510.38;;;4.57;100.00
39793;BME280;26080;42.264;24.536;2022-12-29T08:35:04;100492.22;;;4.56;100.00
39793;BME280;26080;42.264;24.536;2022-12-29T08:37:32;100501.69;;;4.67;100.00
39793;BME280;26080;42.264;24.536;2022-12-29T08:39:57;100499.91;;;4.75;100.00
39793;BME280;26080;42.264;24.536;2022-12-29T08:42:23;100493.84;;;4.73;100.00
39793;BME280;26080;42.264;24.536;2022-12-29T08:44:54;100470.59;;;4.55;100.00
39793;BME280;26080;42.264;24.536;2022-12-29T08:47:19;100498.19;;;4.73;100.00
39793;BME280;26080;42.264;24.536;2022-12-29T08:49:45;100497.31;;;4.74;100.00
39793;BME280;26080;42.264;24.536;2022-12-29T08:52:10;100488.63;;;4.84;100.00
39793;BME280;26080;42.264;24.536;2022-12-29T08:54:36;100483.38;;;4.90;100.00
39793;BME280;26080;42.264;24.536;2022-12-29T08:57:01;100477.25;;;5.03;100.00
39793;BME280;26080;42.264;24.536;2022-12-29T08:59:27;100477.16;;;5.19;100.00
39793;BME280;26080;42.264;24.536;2022-12-29T09:01:52;100472.88;;;5.12;100.00
39793;BME280;26080;42.264;24.536;2022-12-29T09:04:18;100464.22;;;5.13;100.00
39793;BME280;26080;42.264;24.536;2022-12-29T09:06:44;100483.13;;;5.34;100.00
39793;BME280;26080;42.264;24.536;2022-12-29T09:09:10;100469.16;;;5.49;100.00
39793;BME280;26080;42.264;24.536;2022-12-29T09:11:36;100466.44;;;5.60;100.00
39793;BME280;26080;42.264;24.536;2022-12-29T09:14:02;100430.19;;;5.46;100.00
39793;BME280;26080;42.264;24.536;2022-12-29T09:16:28;100458.56;;;5.71;100.00
39793;BME280;26080;42.264;24.536;2022-12-29T09:18:53;100465.44;;;5.75;100.00
39793;BME280;26080;42.264;24.536;2022-12-29T09:21:19;100454.19;;;5.76;100.00
39793;BME280;26080;42.264;24.536;2022-12-29T09:23:44;100457.53;;;5.91;100.00
39793;BME280;26080;42.264;24.536;2022-12-29T09:26:10;100449.66;;;5.99;100.00
39793;BME280;26080;42.264;24.536;2022-12-29T09:28:35;100428.84;;;5.99;100.00
39793;BME280;26080;42.264;24.536;2022-12-29T09:31:02;100447.72;;;6.19;100.00
39793;BME280;26080;42.264;24.536;2022-12-29T09:33:28;100448.56;;;6.21;100.00
39793;BME280;26080;42.264;24.536;2022-12-29T09:35:56;100451.25;;;6.12;100.00
39793;BME280;26080;42.264;24.536;2022-12-29T09:38:23;100419.34;;;5.95;100.00
39793;BME280;26080;42.264;24.536;2022-12-29T09:40:54;100443.41;;;6.14;100.00
39793;BME280;26080;42.264;24.536;2022-12-29T09:46:25;100432.84;;;6.29;100.00
39793;BME280;26080;42.264;24.536;2022-12-29T09:49:00;100404.09;;;6.40;100.00
39793;BME280;26080;42.264;24.536;2022-12-29T09:51:31;100422.16;;;6.52;100.00
39793;BME280;26080;42.264;24.536;2022-12-29T09:54:01;100416.88;;;6.57;100.00
39793;BME280;26080;42.264;24.536;2022-12-29T09:56:29;100414.19;;;6.64;100.00
39793;BME280;26080;42.264;24.536;2022-12-29T09:58:59;100410.59;;;6.74;100.00
39793;BME280;26080;42.264;24.536;2022-12-29T10:01:44;100400.06;;;6.80;100.00
39793;BME280;26080;42.264;24.536;2022-12-29T10:04:12;100397.91;;;7.08;100.00
39793;BME280;26080;42.264;24.536;2022-12-29T10:06:51;100401.44;;;7.04;100.00
39793;BME280;26080;42.264;24.536;2022-12-29T10:12:03;100397.63;;;7.25;100.00
39793;BME280;26080;42.264;24.536;2022-12-29T10:23:17;100362.19;;;7.17;100.00
39793;BME280;26080;42.264;24.536;2022-12-29T10:25:43;100378.09;;;7.51;100.00
39793;BME280;26080;42.264;24.536;2022-12-29T10:30:46;100369.50;;;7.46;100.00
39793;BME280;26080;42.264;24.536;2022-12-29T10:33:17;100371.28;;;7.43;100.00
39793;BME280;26080;42.264;24.536;2022-12-29T10:35:44;100366.06;;;7.43;100.00
39793;BME280;26080;42.264;24.536;2022-12-29T10:38:14;100366.88;;;7.46;100.00
39793;BME280;26080;42.264;24.536;2022-12-29T10:40:53;100355.63;;;7.43;100.00
39793;BME280;26080;42.264;24.536;2022-12-29T10:43:29;100355.59;;;7.45;100.00
39793;BME280;26080;42.264;24.536;2022-12-29T10:45:58;100354.53;;;7.57;100.00
39793;BME280;26080;42.264;24.536;2022-12-29T10:48:30;100353.44;;;7.67;100.00
39793;BME280;26080;42.264;24.536;2022-12-29T10:50:59;100356.94;;;7.66;100.00
39793;BME280;26080;42.264;24.536;2022-12-29T10:53:34;100350.91;;;7.64;100.00
39793;BME280;26080;42.264;24.536;2022-12-29T10:56:02;100349.88;;;7.72;100.00
39793;BME280;26080;42.264;24.536;2022-12-29T10:58:30;100341.09;;;7.77;100.00
39793;BME280;26080;42.264;24.536;2022-12-29T11:00:57;100342.75;;;7.81;100.00
39793;BME280;26080;42.264;24.536;2022-12-29T11:06:09;100336.72;;;7.79;100.00
39793;BME280;26080;42.264;24.536;2022-12-29T11:08:48;100332.94;;;7.93;100.00
39793;BME280;26080;42.264;24.536;2022-12-29T11:11:26;100334.63;;;7.97;100.00
39793;BME280;26080;42.264;24.536;2022-12-29T11:13:58;100331.88;;;8.03;100.00
39793;BME280;26080;42.264;24.536;2022-12-29T11:16:32;100330.94;;;8.06;100.00
39793;BME280;26080;42.264;24.536;2022-12-29T11:19:00;100300.88;;;7.88;100.00
39793;BME280;26080;42.264;24.536;2022-12-29T11:21:37;100328.44;;;8.01;100.00
39793;BME280;26080;42.264;24.536;2022-12-29T11:26:53;100323.72;;;8.19;100.00
39793;BME280;26080;42.264;24.536;2022-12-29T11:29:37;100318.44;;;8.22;100.00
39793;BME280;26080;42.264;24.536;2022-12-29T11:32:28;100317.56;;;8.23;100.00
39793;BME280;26080;42.264;24.536;2022-12-29T11:34:57;100315.97;;;8.16;100.00
39793;BME280;26080;42.264;24.536;2022-12-29T11:37:38;100308.94;;;8.19;100.00
39793;BME280;26080;42.264;24.536;2022-12-29T11:40:05;100312.47;;;8.17;100.00
39793;BME280;26080;42.264;24.536;2022-12-29T11:42:38;100316.69;;;8.24;100.00
39793;BME280;26080;42.264;24.536;2022-12-29T11:45:21;100303.59;;;8.25;100.00
39793;BME280;26080;42.264;24.536;2022-12-29T11:47:50;100281.16;;;8.17;100.00
39793;BME280;26080;42.264;24.536;2022-12-29T11:50:23;100281.06;;;8.20;100.00
39793;BME280;26080;42.264;24.536;2022-12-29T11:53:01;100309.97;;;8.52;100.00
39793;BME280;26080;42.264;24.536;2022-12-29T11:55:27;100295.94;;;8.56;100.00
39793;BME280;26080;42.264;24.536;2022-12-29T11:57:55;100282.00;;;8.57;100.00
39793;BME280;26080;42.264;24.536;2022-12-29T12:00:23;100283.72;;;8.58;100.00
39793;BME280;26080;42.264;24.536;2022-12-29T12:02:54;100283.47;;;8.69;100.00
39793;BME280;26080;42.264;24.536;2022-12-29T12:08:44;100281.19;;;8.55;100.00
39793;BME280;26080;42.264;24.536;2022-12-29T12:11:15;100277.63;;;8.58;100.00
39793;BME280;26080;42.264;24.536;2022-12-29T12:13:58;100280.28;;;8.56;100.00
39793;BME280;26080;42.264;24.536;2022-12-29T12:16:31;100273.97;;;8.67;100.00
39793;BME280;26080;42.264;24.536;2022-12-29T12:19:08;100278.03;;;8.77;100.00
39793;BME280;26080;42.264;24.536;2022-12-29T12:21:40;100281.63;;;8.73;100.00
39793;BME280;26080;42.264;24.536;2022-12-29T12:27:01;100269.34;;;8.78;100.00
39793;BME280;26080;42.264;24.536;2022-12-29T12:30:35;100264.03;;;8.81;100.00
39793;BME280;26080;42.264;24.536;2022-12-29T12:35:12;100262.38;;;8.77;100.00
39793;BME280;26080;42.264;24.536;2022-12-29T12:48:59;100259.09;;;8.69;100.00
39793;BME280;26080;42.264;24.536;2022-12-29T12:54:08;100252.41;;;8.93;100.00
39793;BME280;26080;42.264;24.536;2022-12-29T13:02:26;100248.28;;;8.84;100.00
39793;BME280;26080;42.264;24.536;2022-12-29T13:04:59;100250.75;;;8.88;100.00
39793;BME280;26080;42.264;24.536;2022-12-29T13:23:28;100257.16;;;8.77;100.00
39793;BME280;26080;42.264;24.536;2022-12-29T13:28:41;100252.59;;;8.85;100.00
39793;BME280;26080;42.264;24.536;2022-12-29T13:31:24;100257.31;;;8.71;100.00
39793;BME280;26080;42.264;24.536;2022-12-29T13:39:08;100263.75;;;8.56;100.00
39793;BME280;26080;42.264;24.536;2022-12-29T13:41:49;100244.22;;;8.35;100.00
39793;BME280;26080;42.264;24.536;2022-12-29T13:44:20;100257.81;;;8.49;100.00
39793;BME280;26080;42.264;24.536;2022-12-29T13:46:47;100264.00;;;8.45;100.00
39793;BME280;26080;42.264;24.536;2022-12-29T13:49:18;100245.88;;;8.39;100.00
39793;BME280;26080;42.264;24.536;2022-12-29T13:51:56;100262.97;;;8.52;100.00
39793;BME280;26080;42.264;24.536;2022-12-29T13:54:41;100258.56;;;8.54;100.00
39793;BME280;26080;42.264;24.536;2022-12-29T13:57:12;100239.00;;;8.35;100.00
39793;BME280;26080;42.264;24.536;2022-12-29T13:59:59;100266.00;;;8.32;100.00
39793;BME280;26080;42.264;24.536;2022-12-29T14:02:37;100268.66;;;8.31;100.00
39793;BME280;26080;42.264;24.536;2022-12-29T14:07:46;100274.69;;;8.33;100.00
39793;BME280;26080;42.264;24.536;2022-12-29T14:10:37;100262.44;;;8.38;100.00
39793;BME280;26080;42.264;24.536;2022-12-29T14:15:38;100261.66;;;8.33;100.00
39793;BME280;26080;42.264;24.536;2022-12-29T14:18:32;100270.38;;;8.32;100.00
39793;BME280;26080;42.264;24.536;2022-12-29T14:21:20;100271.31;;;8.29;100.00
39793;BME280;26080;42.264;24.536;2022-12-29T14:23:51;100277.56;;;8.21;100.00
39793;BME280;26080;42.264;24.536;2022-12-29T14:29:16;100277.84;;;8.10;100.00
39793;BME280;26080;42.264;24.536;2022-12-29T14:31:41;100259.00;;;7.94;100.00
39793;BME280;26080;42.264;24.536;2022-12-29T14:38:59;100281.47;;;8.01;100.00
39793;BME280;26080;42.264;24.536;2022-12-29T14:41:34;100283.75;;;8.17;100.00
39793;BME280;26080;42.264;24.536;2022-12-29T14:44:16;100282.19;;;8.10;100.00
39793;BME280;26080;42.264;24.536;2022-12-29T14:46:47;100281.56;;;7.98;100.00
39793;BME280;26080;42.264;24.536;2022-12-29T14:49:19;100289.41;;;7.97;100.00
39793;BME280;26080;42.264;24.536;2022-12-29T14:51:46;100286.13;;;7.87;100.00
39793;BME280;26080;42.264;24.536;2022-12-29T14:57:05;100276.16;;;7.64;100.00
39793;BME280;26080;42.264;24.536;2022-12-29T14:59:34;100281.22;;;7.72;100.00
39793;BME280;26080;42.264;24.536;2022-12-29T15:02:14;100277.72;;;7.73;100.00
39793;BME280;26080;42.264;24.536;2022-12-29T15:04:41;100281.34;;;7.66;100.00
39793;BME280;26080;42.264;24.536;2022-12-29T15:07:09;100282.63;;;7.45;100.00
39793;BME280;26080;42.264;24.536;2022-12-29T15:10:13;100284.47;;;7.38;100.00
39793;BME280;26080;42.264;24.536;2022-12-29T15:12:51;100282.13;;;7.25;100.00
39793;BME280;26080;42.264;24.536;2022-12-29T15:15:27;100269.34;;;7.11;100.00
39793;BME280;26080;42.264;24.536;2022-12-29T15:17:56;100279.75;;;7.11;100.00
39793;BME280;26080;42.264;24.536;2022-12-29T15:20:29;100282.50;;;7.05;100.00
39793;BME280;26080;42.264;24.536;2022-12-29T15:23:12;100280.88;;;6.96;100.00
39793;BME280;26080;42.264;24.536;2022-12-29T15:26:07;100284.53;;;6.88;100.00